Time;durP1;ratioP1;P1;durP2;ratioP2;P2;SDS_P1;SDS_P2;PMS_P1;PMS_P2;Temp;Humidity;BMP_temperature;BMP_pressure;BME280_temperature;BME280_humidity;BME280_pressure;Samples;Min_cycle;Max_cycle;Signal;HPM_P1;HPM_P2
2021/10/13 14:39:19;;;;;;;2.28;1.50;;;18.50;96.80;;;;;;5135494;27;20443;-66
2021/10/13 14:41:45;;;;;;;4.28;1.00;;;19.50;98.20;;;;;;5133548;28;20027;-66
2021/10/13 14:44:13;;;;;;;4.03;1.05;;;19.60;98.20;;;;;;5113888;28;20425;-66
2021/10/13 14:46:39;;;;;;;3.03;1.45;;;19.60;98.20;;;;;;5115112;28;20016;-66
2021/10/13 14:49:05;;;;;;;2.85;1.70;;;19.60;98.50;;;;;;5114824;28;20027;-66
2021/10/13 14:51:32;;;;;;;3.15;1.10;;;19.40;98.50;;;;;;5125576;28;20475;-66
2021/10/13 14:54:00;;;;;;;3.08;1.25;;;19.20;98.60;;;;;;5115097;28;20020;-66
2021/10/13 14:56:26;;;;;;;1.48;1.35;;;19.00;98.90;;;;;;5114877;28;20024;-66
2021/10/13 14:58:52;;;;;;;1.67;1.15;;;18.80;99.10;;;;;;5115092;28;20103;-66
2021/10/13 15:01:22;;;;;;;2.17;1.50;;;18.60;99.50;;;;;;5114774;28;20054;-66
2021/10/13 15:03:49;;;;;;;2.08;1.27;;;18.50;99.80;;;;;;5114561;28;20505;-66
2021/10/13 15:06:16;;;;;;;1.92;1.20;;;18.40;99.90;;;;;;5114624;28;20491;-66
2021/10/13 15:08:42;;;;;;;5.30;1.90;;;18.20;99.90;;;;;;5117781;28;20024;-66
2021/10/13 15:11:07;;;;;;;2.25;1.75;;;18.20;99.90;;;;;;5114507;28;20026;-66
2021/10/13 15:13:33;;;;;;;5.80;1.83;;;18.10;99.90;;;;;;5114640;28;20020;-66
2021/10/13 15:15:59;;;;;;;3.13;2.58;;;18.00;99.90;;;;;;5113054;28;20395;-66
2021/10/13 15:18:28;;;;;;;3.70;2.20;;;18.10;99.90;;;;;;5114309;28;20024;-66
2021/10/13 15:20:55;;;;;;;2.90;2.08;;;18.00;99.90;;;;;;5114261;28;20101;-66
2021/10/13 15:23:21;;;;;;;1.73;1.63;;;17.80;99.90;;;;;;5114390;28;20028;-66
2021/10/13 15:25:47;;;;;;;2.70;1.85;;;17.90;99.90;;;;;;5114343;28;20050;-66
2021/10/13 15:28:13;;;;;;;2.67;1.95;;;17.90;99.90;;;;;;5112946;28;20089;-66
2021/10/13 15:30:40;;;;;;;1.77;1.65;;;17.90;99.90;;;;;;5114157;28;20589;-66
2021/10/13 15:33:07;;;;;;;2.47;1.30;;;17.80;99.90;;;;;;5113011;28;20027;-66
2021/10/13 15:35:33;;;;;;;5.35;2.03;;;17.90;99.90;;;;;;5107567;28;20024;-66
2021/10/13 15:37:59;;;;;;;4.25;2.20;;;18.00;99.90;;;;;;5113608;28;20063;-66
2021/10/13 15:40:25;;;;;;;2.70;1.67;;;18.00;99.90;;;;;;5100003;28;20368;-66
2021/10/13 15:42:52;;;;;;;2.67;1.48;;;18.30;99.90;;;;;;5101399;28;20356;-62
2021/10/13 15:45:19;;;;;;;4.75;2.28;;;18.30;99.90;;;;;;5100430;28;20024;-59
2021/10/13 15:47:45;;;;;;;3.63;1.40;;;18.50;99.90;;;;;;5100324;28;20039;-57
2021/10/13 15:50:11;;;;;;;3.78;2.00;;;18.60;99.90;;;;;;5099797;28;20042;-57
2021/10/13 15:52:39;;;;;;;3.45;1.70;;;18.70;99.90;;;;;;5100144;28;20501;-57
2021/10/13 15:55:08;;;;;;;3.53;1.65;;;18.50;99.90;;;;;;5100404;28;20047;-57
2021/10/13 15:57:34;;;;;;;3.95;2.33;;;18.50;99.90;;;;;;5100167;28;20016;-57
2021/10/13 16:00:00;;;;;;;5.35;1.73;;;18.50;99.90;;;;;;5100202;28;20081;-57
2021/10/13 16:02:26;;;;;;;5.22;2.10;;;18.30;99.90;;;;;;5089642;28;20032;-58
2021/10/13 16:04:51;;;;;;;6.93;4.28;;;18.30;99.90;;;;;;5099833;28;20021;-58
2021/10/13 16:07:18;;;;;;;7.80;4.47;;;18.00;99.90;;;;;;5099875;28;20061;-58
2021/10/13 16:09:44;;;;;;;12.43;5.18;;;17.80;99.90;;;;;;5086503;28;20027;-58
2021/10/13 16:12:10;;;;;;;6.85;4.45;;;17.40;99.90;;;;;;5099650;28;20032;-58
2021/10/13 16:14:36;;;;;;;5.43;3.70;;;17.10;99.90;;;;;;5099938;28;20025;-58
2021/10/13 16:17:02;;;;;;;6.60;3.88;;;17.00;99.90;;;;;;5099054;28;20024;-58
2021/10/13 16:19:28;;;;;;;4.30;2.92;;;16.80;99.90;;;;;;5102714;28;20016;-58
2021/10/13 16:21:54;;;;;;;2.85;2.55;;;16.60;99.90;;;;;;5105722;27;20479;-58
2021/10/13 16:24:20;;;;;;;6.03;3.08;;;16.50;99.90;;;;;;5099307;28;20024;-58
2021/10/13 16:26:46;;;;;;;2.85;2.58;;;16.30;99.90;;;;;;5099332;28;20078;-58
2021/10/13 16:29:12;;;;;;;4.53;3.13;;;16.20;99.90;;;;;;5099636;28;20052;-58
2021/10/13 16:31:44;;;;;;;4.00;2.25;;;16.10;99.90;;;;;;5098706;28;20077;-58
2021/10/13 16:34:11;;;;;;;4.03;2.10;;;16.00;99.90;;;;;;5099208;28;20028;-58
2021/10/13 16:36:37;;;;;;;3.53;2.35;;;15.80;99.90;;;;;;5099346;28;20109;-58
2021/10/13 16:39:03;;;;;;;2.80;2.47;;;15.70;99.90;;;;;;5098643;28;20044;-59
2021/10/13 16:41:29;;;;;;;7.20;2.60;;;15.60;99.90;;;;;;5099873;28;20020;-59
2021/10/13 16:43:55;;;;;;;5.75;3.28;;;15.50;99.90;;;;;;5099522;28;20023;-60
2021/10/13 16:46:20;;;;;;;4.18;2.28;;;15.50;99.90;;;;;;5098597;28;20031;-59
2021/10/13 16:48:46;;;;;;;2.50;2.30;;;15.40;99.90;;;;;;5098733;28;20037;-68
2021/10/13 16:51:14;;;;;;;3.88;2.22;;;14.90;99.90;;;;;;5097483;28;20024;-68
2021/10/13 16:53:40;;;;;;;3.80;1.92;;;15.10;99.90;;;;;;5097478;28;20024;-68
2021/10/13 16:56:06;;;;;;;3.70;2.25;;;14.80;99.90;;;;;;5098957;28;20103;-68
2021/10/13 16:58:32;;;;;;;3.50;2.78;;;14.70;99.90;;;;;;5099300;28;20084;-68
2021/10/13 17:00:58;;;;;;;4.07;2.83;;;14.70;99.90;;;;;;5098796;28;20024;-68
2021/10/13 17:03:24;;;;;;;3.08;2.35;;;14.60;99.90;;;;;;5098724;28;20046;-68
2021/10/13 17:05:49;;;;;;;3.28;2.72;;;14.60;99.90;;;;;;5098610;28;20031;-68
2021/10/13 17:08:17;;;;;;;2.85;2.30;;;14.20;99.90;;;;;;5098865;28;20020;-68
2021/10/13 17:10:43;;;;;;;2.20;2.00;;;14.10;99.90;;;;;;5098875;28;20054;-68
2021/10/13 17:13:09;;;;;;;4.57;2.63;;;14.30;99.90;;;;;;5098789;28;20020;-68
2021/10/13 17:15:35;;;;;;;4.75;2.42;;;13.90;99.90;;;;;;5098633;28;20056;-68
2021/10/13 17:18:02;;;;;;;5.50;2.80;;;13.90;99.90;;;;;;5098542;28;20027;-68
2021/10/13 17:20:31;;;;;;;3.22;2.92;;;13.60;99.90;;;;;;5098338;28;20380;-68
2021/10/13 17:22:57;;;;;;;3.55;2.42;;;14.00;99.90;;;;;;5098502;28;20395;-68
2021/10/13 17:25:23;;;;;;;6.07;2.40;;;13.80;99.90;;;;;;5098789;28;20035;-68
2021/10/13 17:27:49;;;;;;;4.45;2.80;;;13.50;99.90;;;;;;5098318;28;20024;-68
2021/10/13 17:30:15;;;;;;;4.07;2.85;;;13.50;99.90;;;;;;5098290;28;20016;-68
2021/10/13 17:32:41;;;;;;;4.47;2.63;;;13.20;99.90;;;;;;5098506;28;20147;-68
2021/10/13 17:35:08;;;;;;;4.68;3.28;;;13.30;99.90;;;;;;5097947;28;20372;-68
2021/10/13 17:37:33;;;;;;;2.80;2.50;;;13.20;99.90;;;;;;5098138;28;20044;-68
2021/10/13 17:39:59;;;;;;;4.70;3.95;;;13.00;99.90;;;;;;5096946;28;20020;-68
2021/10/13 17:42:26;;;;;;;3.22;2.90;;;13.10;99.90;;;;;;5099102;28;20498;-68
2021/10/13 17:44:52;;;;;;;3.00;2.80;;;12.80;99.90;;;;;;5098194;28;20127;-68
2021/10/13 17:47:19;;;;;;;6.30;3.83;;;12.60;99.90;;;;;;5098127;28;20024;-68
2021/10/13 17:49:46;;;;;;;5.50;3.72;;;11.70;99.90;;;;;;5097708;28;20500;-67
2021/10/13 17:52:11;;;;;;;5.00;3.08;;;12.80;99.90;;;;;;5098122;28;20038;-68
2021/10/13 17:54:39;;;;;;;4.72;3.38;;;12.30;99.90;;;;;;5098047;28;20471;-68
2021/10/13 17:57:06;;;;;;;3.25;2.95;;;12.40;99.90;;;;;;5098077;28;20028;-67
2021/10/13 17:59:31;;;;;;;4.43;3.95;;;12.60;99.90;;;;;;5097916;28;20028;-67
2021/10/13 18:01:58;;;;;;;4.57;3.80;;;12.40;99.90;;;;;;5097644;28;20028;-67
2021/10/13 18:04:24;;;;;;;5.72;4.50;;;12.40;99.90;;;;;;5097596;28;20088;-67
2021/10/13 18:06:50;;;;;;;5.25;4.75;;;11.80;99.90;;;;;;5097783;28;20050;-68
2021/10/13 18:09:16;;;;;;;4.07;3.67;;;11.80;99.90;;;;;;5097650;28;20024;-67
2021/10/13 18:11:42;;;;;;;7.22;4.68;;;12.10;99.90;;;;;;5097523;28;20031;-67
2021/10/13 18:14:09;;;;;;;5.97;4.10;;;11.70;99.90;;;;;;5096345;28;20016;-67
2021/10/13 18:16:35;;;;;;;6.03;4.10;;;12.10;99.90;;;;;;5097577;28;20016;-67
2021/10/13 18:19:00;;;;;;;4.50;4.10;;;11.50;99.90;;;;;;5097447;28;20016;-67
2021/10/13 18:21:26;;;;;;;5.95;4.88;;;11.70;99.90;;;;;;5097422;28;20030;-67
2021/10/13 18:23:52;;;;;;;4.90;4.20;;;11.50;99.90;;;;;;5097482;28;20026;-67
2021/10/13 18:26:18;;;;;;;6.13;4.03;;;11.60;99.90;;;;;;5097495;28;20025;-67
2021/10/13 18:28:44;;;;;;;6.72;4.50;;;11.00;99.90;;;;;;5097673;28;20581;-67
2021/10/13 18:31:10;;;;;;;9.13;5.80;;;11.40;99.90;;;;;;5097403;28;20020;-67
2021/10/13 18:33:37;;;;;;;14.38;7.65;;;11.50;99.90;;;;;;5097220;28;20060;-67
2021/10/13 18:36:03;;;;;;;7.78;6.50;;;12.00;99.90;;;;;;5097172;28;20408;-67
2021/10/13 18:38:29;;;;;;;5.97;5.30;;;11.30;99.90;;;;;;5097257;28;20056;-67
2021/10/13 18:40:55;;;;;;;9.93;6.38;;;10.90;99.90;;;;;;5097315;28;20020;-67
2021/10/13 18:43:21;;;;;;;6.28;5.65;;;10.80;99.90;;;;;;5098179;28;20079;-67
2021/10/13 18:45:47;;;;;;;6.60;5.35;;;10.60;99.90;;;;;;5097102;28;20546;-67
2021/10/13 18:48:13;;;;;;;6.43;5.03;;;11.30;99.90;;;;;;5096921;28;20067;-67
2021/10/13 18:50:40;;;;;;;9.23;5.70;;;10.50;99.90;;;;;;5097250;28;20078;-67
2021/10/13 18:53:06;;;;;;;9.10;5.75;;;11.40;99.90;;;;;;5097112;28;20472;-68
2021/10/13 18:55:32;;;;;;;5.88;5.38;;;11.00;99.90;;;;;;5097217;28;20021;-67
2021/10/13 18:57:58;;;;;;;8.20;4.97;;;10.90;99.90;;;;;;5097568;28;20111;-67
2021/10/13 19:00:24;;;;;;;5.65;5.05;;;11.30;99.90;;;;;;5097217;28;20052;-67
2021/10/13 19:02:51;;;;;;;7.53;4.68;;;10.40;99.90;;;;;;5097021;28;20032;-67
2021/10/13 19:05:17;;;;;;;13.80;6.35;;;10.70;99.90;;;;;;5096996;28;20028;-67
2021/10/13 19:07:43;;;;;;;7.57;5.85;;;10.70;99.90;;;;;;5097321;28;20032;-67
2021/10/13 19:10:09;;;;;;;7.97;5.55;;;10.70;99.90;;;;;;5097049;28;20020;-67
2021/10/13 19:12:36;;;;;;;5.35;4.65;;;10.50;99.90;;;;;;5097359;28;20020;-67
2021/10/13 19:15:04;;;;;;;8.50;5.65;;;10.10;99.90;;;;;;5099834;28;20051;-67
2021/10/13 19:17:30;;;;;;;7.10;5.88;;;10.50;99.90;;;;;;5101327;28;20468;-67
2021/10/13 19:19:57;;;;;;;10.52;6.60;;;10.40;99.90;;;;;;5100581;28;20051;-67
2021/10/13 19:22:23;;;;;;;12.27;6.88;;;10.80;99.90;;;;;;5101060;28;20031;-67
2021/10/13 19:24:49;;;;;;;11.63;5.15;;;10.00;99.90;;;;;;5100813;28;20020;-67
2021/10/13 19:27:14;;;;;;;8.77;5.10;;;10.70;99.90;;;;;;5101049;28;20028;-67
2021/10/13 19:29:40;;;;;;;6.32;5.28;;;10.00;99.90;;;;;;5100595;28;20023;-67
2021/10/13 19:32:07;;;;;;;9.57;7.15;;;10.10;99.90;;;;;;5100487;28;20073;-67
2021/10/13 19:34:34;;;;;;;7.28;5.45;;;10.30;99.90;;;;;;5100238;28;20597;-67
2021/10/13 19:37:00;;;;;;;6.00;5.40;;;10.00;99.90;;;;;;5100730;28;20028;-67
2021/10/13 19:39:29;;;;;;;9.80;5.07;;;10.00;99.90;;;;;;5100494;28;20035;-67
2021/10/13 19:41:56;;;;;;;7.68;5.68;;;10.40;99.90;;;;;;5101297;28;20050;-67
2021/10/13 19:44:23;;;;;;;7.03;5.50;;;9.90;99.90;;;;;;5100431;28;20502;-67
2021/10/13 19:46:49;;;;;;;6.13;4.65;;;9.80;99.90;;;;;;5100307;28;20078;-67
2021/10/13 19:49:15;;;;;;;5.35;4.85;;;9.90;99.90;;;;;;5100054;28;20024;-67
2021/10/13 19:51:41;;;;;;;6.38;4.60;;;9.60;99.90;;;;;;5100407;28;20077;-67
2021/10/13 19:54:06;;;;;;;6.13;5.13;;;9.50;99.90;;;;;;5100028;28;20028;-67
2021/10/13 19:56:33;;;;;;;10.43;5.00;;;10.20;99.90;;;;;;5100223;28;20016;-67
2021/10/13 19:58:59;;;;;;;7.80;6.25;;;9.80;99.90;;;;;;5100250;28;20020;-67
2021/10/13 20:01:26;;;;;;;7.70;5.70;;;10.10;99.90;;;;;;5100015;28;20134;-67
2021/10/13 20:03:56;;;;;;;5.05;4.57;;;10.40;99.90;;;;;;5099711;28;20023;-67
2021/10/13 20:06:22;;;;;;;7.40;6.22;;;9.90;99.90;;;;;;5100475;28;20027;-67
2021/10/13 20:08:49;;;;;;;5.38;4.88;;;10.20;99.90;;;;;;5099818;28;20028;-67
2021/10/13 20:11:15;;;;;;;9.18;4.93;;;9.70;99.90;;;;;;5099930;28;20437;-67
2021/10/13 20:13:41;;;;;;;8.20;5.80;;;9.70;99.90;;;;;;5099737;28;20073;-67
2021/10/13 20:16:07;;;;;;;7.60;5.57;;;9.70;99.90;;;;;;5100169;28;20027;-67
2021/10/13 20:18:33;;;;;;;5.85;5.30;;;10.20;99.90;;;;;;5098021;28;20024;-67
2021/10/13 20:20:59;;;;;;;8.10;5.47;;;9.70;99.90;;;;;;5099737;28;20036;-67
2021/10/13 20:23:25;;;;;;;4.97;4.53;;;9.60;99.90;;;;;;5099661;28;20095;-67
2021/10/13 20:25:51;;;;;;;9.05;6.60;;;10.40;99.90;;;;;;5099539;28;20515;-67
2021/10/13 20:28:17;;;;;;;6.40;5.07;;;9.60;99.90;;;;;;5099782;28;20466;-67
2021/10/13 20:30:43;;;;;;;8.02;6.20;;;10.20;99.90;;;;;;5099722;28;20392;-67
2021/10/13 20:33:09;;;;;;;8.25;5.70;;;10.20;99.90;;;;;;5099237;28;20096;-67
2021/10/13 20:35:35;;;;;;;8.27;6.00;;;9.60;99.90;;;;;;5099465;28;20028;-67
2021/10/13 20:38:01;;;;;;;11.45;6.38;;;10.00;99.90;;;;;;5099120;28;20056;-67
2021/10/13 20:40:27;;;;;;;10.18;6.18;;;9.50;99.90;;;;;;5099349;28;20085;-67
2021/10/13 20:43:00;;;;;;;5.45;4.93;;;9.40;99.90;;;;;;5105679;28;20024;-67
2021/10/13 20:45:28;;;;;;;6.57;5.32;;;9.70;99.90;;;;;;5099451;28;20077;-67
2021/10/13 20:47:54;;;;;;;8.27;5.82;;;9.80;99.90;;;;;;5098817;28;20026;-67
2021/10/13 20:50:21;;;;;;;10.02;6.93;;;9.90;99.90;;;;;;5099107;28;20020;-67
2021/10/13 20:52:48;;;;;;;12.70;5.97;;;9.80;99.90;;;;;;5098892;28;20050;-67
2021/10/13 20:55:14;;;;;;;9.55;6.18;;;9.30;99.90;;;;;;5099289;28;20426;-67
2021/10/13 20:57:43;;;;;;;6.57;5.97;;;9.80;99.90;;;;;;5098907;28;20028;-67
2021/10/13 21:00:13;;;;;;;8.85;6.20;;;9.80;99.90;;;;;;5098863;28;20032;-67
2021/10/13 21:02:40;;;;;;;7.50;5.05;;;8.80;99.90;;;;;;5097496;28;20024;-67
2021/10/13 21:05:06;;;;;;;7.88;6.18;;;9.90;99.90;;;;;;5098558;28;20028;-67
2021/10/13 21:07:36;;;;;;;6.53;5.43;;;9.60;99.90;;;;;;5098801;28;20024;-67
2021/10/13 21:10:04;;;;;;;6.55;5.10;;;9.60;99.90;;;;;;5098711;28;20047;-67
2021/10/13 21:12:30;;;;;;;9.40;7.82;;;9.90;99.90;;;;;;5098668;28;20153;-67
2021/10/13 21:14:56;;;;;;;9.95;6.53;;;9.50;99.90;;;;;;5098542;28;20055;-67
2021/10/13 21:17:22;;;;;;;7.57;5.93;;;8.80;99.90;;;;;;5098738;28;20391;-67
2021/10/13 21:19:48;;;;;;;9.95;6.53;;;9.70;99.90;;;;;;5098287;28;20034;-67
2021/10/13 21:22:14;;;;;;;14.73;6.80;;;9.70;99.90;;;;;;5098569;28;20024;-67
2021/10/13 21:24:40;;;;;;;14.25;7.25;;;9.50;99.90;;;;;;5098744;28;20024;-67
2021/10/13 21:27:05;;;;;;;11.35;6.88;;;9.40;99.90;;;;;;5098390;28;20020;-67
2021/10/13 21:29:31;;;;;;;8.43;6.13;;;9.20;99.90;;;;;;5098477;28;20052;-67
2021/10/13 21:31:57;;;;;;;8.80;7.05;;;9.10;99.90;;;;;;5098317;28;20034;-67
2021/10/13 21:34:23;;;;;;;11.18;8.05;;;9.30;99.90;;;;;;5097892;28;20021;-67
2021/10/13 21:36:49;;;;;;;9.98;7.00;;;8.70;99.90;;;;;;5097674;28;20020;-67
2021/10/13 21:39:15;;;;;;;13.00;8.27;;;8.80;99.90;;;;;;5098016;28;20732;-67
2021/10/13 21:41:40;;;;;;;9.93;7.30;;;8.60;99.90;;;;;;5099109;28;20102;-67
2021/10/13 21:44:06;;;;;;;8.65;6.40;;;8.90;99.90;;;;;;5098172;28;20028;-67
2021/10/13 21:46:32;;;;;;;10.90;6.90;;;9.40;99.90;;;;;;5098267;28;20012;-67
2021/10/13 21:48:59;;;;;;;9.60;6.55;;;8.30;99.90;;;;;;5097759;28;20035;-67
2021/10/13 21:51:24;;;;;;;8.57;6.50;;;8.70;99.90;;;;;;5098134;28;20020;-67
2021/10/13 21:53:50;;;;;;;7.15;6.25;;;8.20;99.90;;;;;;5098054;28;20026;-67
2021/10/13 21:56:16;;;;;;;9.45;6.53;;;8.90;99.90;;;;;;5098306;28;20040;-67
2021/10/13 21:58:42;;;;;;;7.50;6.03;;;9.10;99.90;;;;;;5096757;28;20613;-67
2021/10/13 22:01:08;;;;;;;8.68;6.97;;;9.20;99.90;;;;;;5098003;28;20028;-67
2021/10/13 22:03:34;;;;;;;7.30;5.85;;;8.40;99.90;;;;;;5097373;28;20035;-67
2021/10/13 22:06:00;;;;;;;8.30;6.35;;;8.70;99.90;;;;;;5097935;28;20023;-67
2021/10/13 22:08:29;;;;;;;8.63;7.55;;;8.40;99.90;;;;;;5097599;28;20024;-67
2021/10/13 22:10:55;;;;;;;9.70;6.00;;;8.40;99.90;;;;;;5097805;28;20031;-67
2021/10/13 22:13:22;;;;;;;7.18;6.40;;;9.30;99.90;;;;;;5097558;28;20026;-67
2021/10/13 22:15:48;;;;;;;8.13;6.13;;;8.70;99.90;;;;;;5097731;28;20051;-67
2021/10/13 22:18:14;;;;;;;9.38;6.43;;;8.50;99.90;;;;;;5097180;28;20028;-67
2021/10/13 22:20:41;;;;;;;8.45;6.47;;;9.10;99.90;;;;;;5097733;28;20020;-67
2021/10/13 22:23:08;;;;;;;7.85;6.60;;;8.10;99.90;;;;;;5097425;28;20395;-67
2021/10/13 22:25:34;;;;;;;8.57;6.03;;;8.80;99.90;;;;;;5097856;28;20058;-67
2021/10/13 22:28:00;;;;;;;9.52;6.80;;;8.50;99.90;;;;;;5097532;28;20055;-66
2021/10/13 22:30:26;;;;;;;10.45;7.63;;;8.90;99.90;;;;;;5097606;28;20016;-67
2021/10/13 22:32:52;;;;;;;13.85;7.07;;;8.20;99.90;;;;;;5097189;28;20099;-67
2021/10/13 22:35:21;;;;;;;7.32;6.13;;;7.70;99.90;;;;;;5097355;28;20569;-67
2021/10/13 22:37:48;;;;;;;8.75;6.55;;;7.70;99.90;;;;;;5097233;28;20407;-67
2021/10/13 22:40:15;;;;;;;8.30;6.97;;;9.30;99.90;;;;;;5097461;28;20391;-67
2021/10/13 22:42:41;;;;;;;9.00;6.93;;;8.20;99.90;;;;;;5098073;28;20028;-67
2021/10/13 22:45:08;;;;;;;8.98;6.50;;;8.90;99.90;;;;;;5097372;28;20036;-67
2021/10/13 22:47:34;;;;;;;9.00;7.35;;;7.70;99.90;;;;;;5097278;28;20023;-67
2021/10/13 22:50:00;;;;;;;12.43;7.18;;;7.90;99.90;;;;;;5099860;28;20476;-67
2021/10/13 22:52:26;;;;;;;10.38;7.35;;;8.40;99.90;;;;;;5101222;28;20032;-67
2021/10/13 22:54:55;;;;;;;;;;;8.40;99.90;;;;;;5101831;28;20410;-67
2021/10/13 22:57:23;;;;;;;7.85;6.57;;;8.00;99.90;;;;;;5101349;28;20368;-67
2021/10/13 22:59:50;;;;;;;9.40;8.02;;;7.70;99.90;;;;;;5101295;28;20047;-67
2021/10/13 23:02:17;;;;;;;9.90;8.43;;;8.40;99.90;;;;;;5101133;28;20032;-67
2021/10/13 23:04:43;;;;;;;12.70;11.35;;;7.60;99.90;;;;;;5100924;28;20502;-67
2021/10/13 23:07:09;;;;;;;13.50;9.45;;;7.90;99.90;;;;;;5101070;28;20031;-67
2021/10/13 23:09:35;;;;;;;9.98;8.18;;;7.70;99.90;;;;;;5101152;28;20073;-67
2021/10/13 23:12:01;;;;;;;9.23;8.23;;;7.20;99.90;;;;;;5100870;28;20095;-67
2021/10/13 23:14:27;;;;;;;9.55;8.35;;;7.60;99.90;;;;;;5101008;28;20112;-67
2021/10/13 23:16:53;;;;;;;;;;;7.90;99.90;;;;;;5101468;28;20056;-67
2021/10/13 23:19:19;;;;;;;13.10;9.40;;;7.50;99.90;;;;;;5100722;28;19911;-67
2021/10/13 23:21:44;;;;;;;;;;;8.30;99.90;;;;;;5101174;28;20059;-67
2021/10/13 23:24:10;;;;;;;12.48;9.70;;;7.70;99.90;;;;;;5101054;28;19951;-67
2021/10/13 23:26:36;;;;;;;12.23;7.82;;;8.00;99.90;;;;;;5100707;28;20024;-67
2021/10/13 23:29:02;;;;;;;;;;;8.20;99.90;;;;;;5101137;28;20495;-67
2021/10/13 23:31:29;;;;;;;14.15;9.13;;;7.40;99.90;;;;;;5100746;28;19904;-67
2021/10/13 23:33:58;;;;;;;12.15;8.60;;;7.70;99.90;;;;;;5100365;28;20032;-67
2021/10/13 23:36:24;;;;;;;10.00;7.70;;;7.80;99.90;;;;;;5100443;28;20024;-67
2021/10/13 23:38:50;;;;;;;10.38;8.38;;;7.60;99.90;;;;;;5100359;28;20075;-67
2021/10/13 23:41:16;;;;;;;;;;;6.90;99.90;;;;;;5099430;28;20028;-67
2021/10/13 23:43:42;;;;;;;12.50;7.30;;;7.30;99.90;;;;;;5101266;28;19904;-67
2021/10/13 23:46:07;;;;;;;;;;;7.60;99.90;;;;;;5100757;28;20032;-67
2021/10/13 23:48:33;;;;;;;11.43;7.53;;;7.70;99.90;;;;;;5100394;28;19908;-66
2021/10/13 23:50:59;;;;;;;8.55;6.95;;;7.70;99.90;;;;;;5100204;28;20089;-67
2021/10/13 23:53:25;;;;;;;;;;;8.20;99.90;;;;;;5100829;28;20028;-67
2021/10/13 23:55:51;;;;;;;8.38;6.82;;;7.10;99.90;;;;;;5100556;28;19954;-67
2021/10/13 23:58:16;;;;;;;7.18;6.43;;;7.00;99.90;;;;;;5100428;28;20027;-66
